00:53 Bike Schwaz - Kundl
Ort Schwaz Datum 21.07.2010 07:03:07
Kategorie MTB
Distanz 26,68 Kilometer Steigung 24,2 Meter Gefälle -34,7 Meter
Gesamt Zeit 00:53:09 Aktiv 00:53:09 Pause 00:00:00
Durchs. Tempo 30,1 km/h Tempo max. 40,3 km/h Tempo min. 15,2 km/h
Kalorien 0 Durchs. HF 151 BPM HF max. 171 BPM
Wetter 29 °C ChanceRain
Ausrüstung Schwalbe - Racing Ralph hinten
Schwalbe - Racing Ralph vorne
Shimano - HG-93 XT
Specialized - BG S-Works MTB
Specialized - Stumpjumper Comp
SwissStop - Disc17 Avid Juicy
Notiz Schwaz - Kundl ... ab Zillertal leichter Rueckenwind ... garmin connect
Splits
Distanz (km) Gesamt Zeit Split Zeit Split Tempo Split Tempo Höhenprofil (m)
1,00 00:02:16 00:02:16 00:02:16 26,5 5,00
2,00 00:04:13 00:01:57 00:01:57 30,8 0,00
3,00 00:06:10 00:01:57 00:01:57 30,8 -0,82
4,00 00:08:45 00:02:35 00:02:35 23,2 4,09
5,00 00:10:24 00:01:39 00:01:39 36,4 -13,27
6,00 00:12:36 00:02:12 00:02:12 27,3 11,12
7,00 00:15:02 00:02:26 00:02:26 24,7 14,22
8,00 00:17:12 00:02:10 00:02:10 27,7 -32,34
9,00 00:19:06 00:01:54 00:01:54 31,6 -2,00
10,00 00:21:02 00:01:56 00:01:56 31,0 0,00
11,00 00:22:54 00:01:52 00:01:52 32,1 -1,98
12,00 00:24:49 00:01:55 00:01:55 31,3 1,98
13,00 00:27:05 00:02:16 00:02:16 26,5 0,42
14,00 00:29:02 00:01:57 00:01:57 30,8 -4,02
15,00 00:30:53 00:01:51 00:01:51 32,4 -1,40
16,00 00:32:45 00:01:52 00:01:52 32,1 -0,95
17,00 00:34:43 00:01:58 00:01:58 30,5 -1,05
18,00 00:36:38 00:01:55 00:01:55 31,3 4,81
19,00 00:38:32 00:01:54 00:01:54 31,6 -4,61
20,00 00:40:28 00:01:56 00:01:56 31,0 -2,20
21,00 00:42:20 00:01:52 00:01:52 32,1 -1,00
22,00 00:44:07 00:01:47 00:01:47 33,6 0,00
23,00 00:45:57 00:01:50 00:01:50 32,7 0,00
24,00 00:47:47 00:01:50 00:01:50 32,7 0,00
25,00 00:49:39 00:01:52 00:01:52 32,1 0,00
26,00 00:51:31 00:01:52 00:01:52 32,1 -0,91